This is the latest recevied weather packets stored in our database for station/object WK7G. If no packets are shown the sender has not sent any weather packets the latest 10 day(s).
| Time | Temp. | Humidity | Pressure | Rain* | Wind** | Luminosity | Snow |
|---|---|---|---|---|---|---|---|
| 1777648610 | 7.22° C | 56% | 1016 hPa | 0 mm | - | 416 W/m² | - |
| 1777648307 | 7.22° C | 58% | 1016 hPa | 0 mm | - | 411 W/m² | - |
| 1777648003 | 7.22° C | 58% | 1016.1 hPa | 0 mm | - | 348 W/m² | - |
| 1777647699 | 7.22° C | 58% | 1015.9 hPa | 0 mm | - | 356 W/m² | - |
| 1777647395 | 5.56° C | 66% | 1015.8 hPa | 0 mm | - | 355 W/m² | - |
| 1777646789 | 5° C | 68% | 1015.8 hPa | 0 mm | - | 322 W/m² | - |
| 1777646484 | 4.44° C | 69% | 1015.7 hPa | 0 mm | - | 308 W/m² | - |
| 1777646180 | 5° C | 69% | 1016 hPa | 0 mm | - | 285 W/m² | - |
| 1777645878 | 5° C | 69% | 1015.9 hPa | 0 mm | - | 257 W/m² | - |
| 1777645575 | 5.56° C | 66% | 1016 hPa | 0 mm | - | 255 W/m² | - |
| 1777645271 | 5° C | 66% | 1016.1 hPa | 0 mm | - | 245 W/m² | - |
| 1777644967 | 5° C | 66% | 1016 hPa | 0 mm | - | 225 W/m² | - |
| 1777644665 | 4.44° C | 69% | 1016 hPa | 0 mm | - | 209 W/m² | - |
| 1777644360 | 3.89° C | 68% | 1015.9 hPa | 0 mm | - | 180 W/m² | - |
| 1777644057 | 3.89° C | 64% | 1016 hPa | 0 mm | - | 171 W/m² | - |
| 1777643754 | 3.89° C | 67% | 1015.9 hPa | 0 mm | - | 146 W/m² | - |
| 1777643452 | 3.33° C | 68% | 1015.8 hPa | 0 mm | - | 120 W/m² | - |
| 1777643148 | 3.33° C | 71% | 1016 hPa | 0 mm | - | 117 W/m² | - |
| 1777642844 | 2.78° C | 72% | 1015.9 hPa | 0 mm | - | 112 W/m² | - |
| 1777642542 | 3.33° C | 68% | 1015.9 hPa | 0 mm | - | 74 W/m² | - |
| 1777642238 | 2.22° C | 69% | 1015.8 hPa | 0 mm | - | 55 W/m² | - |
| 1777641936 | 2.22° C | 72% | 1015.8 hPa | 0 mm | - | 49 W/m² | - |
| 1777641631 | 1.67° C | 72% | 1015.8 hPa | 0 mm | - | 45 W/m² | - |
| 1777641326 | 1.11° C | 73% | 1015.7 hPa | 0 mm | - | 41 W/m² | - |
| 1777641022 | 0° C | 75% | 1015.8 hPa | 0 mm | - | 37 W/m² | - |
* Rain latest hour (hover to see other rain measurements)
** Current wind speed in m/s (hover to see current wind gust speed)